createdAt,value
2019-02-06T00:06:11.883Z,4.20
2019-02-06T00:08:51.919Z,4.20
2019-02-06T00:11:31.158Z,4.20
2019-02-06T00:14:11.200Z,4.20
2019-02-06T00:19:33.571Z,3.80
2019-02-06T00:22:13.445Z,3.80
2019-02-06T00:24:53.683Z,3.80
2019-02-06T00:27:33.811Z,3.60
2019-02-06T00:30:17.689Z,3.70
2019-02-06T00:32:57.746Z,3.70
2019-02-06T00:35:37.594Z,3.70
2019-02-06T00:38:16.805Z,3.80
2019-02-06T00:40:56.739Z,3.90
2019-02-06T00:43:36.737Z,3.90
2019-02-06T00:49:41.393Z,3.80
2019-02-06T00:52:21.388Z,3.90
2019-02-06T00:55:01.145Z,4.00
2019-02-06T00:57:42.837Z,3.90
2019-02-06T01:00:21.956Z,3.90
2019-02-06T01:03:03.055Z,3.90
2019-02-06T01:05:42.263Z,4.00
2019-02-06T01:08:21.369Z,4.00
2019-02-06T01:11:00.517Z,4.10
2019-02-06T01:16:43.310Z,4.00
2019-02-06T01:19:22.611Z,4.00
2019-02-06T01:22:02.754Z,4.00
2019-02-06T01:24:41.791Z,3.90
2019-02-06T01:27:25.670Z,3.80
2019-02-06T01:30:06.266Z,3.80
2019-02-06T01:32:45.892Z,3.60
2019-02-06T01:35:25.934Z,3.80
2019-02-06T01:38:05.054Z,3.80
2019-02-06T01:40:44.285Z,3.80
2019-02-06T01:43:24.175Z,3.70
2019-02-06T01:48:46.439Z,3.70
2019-02-06T01:51:26.261Z,3.70
2019-02-06T01:57:31.784Z,3.60
2019-02-06T02:03:19.340Z,3.50
2019-02-06T02:06:02.305Z,3.60
2019-02-06T02:08:41.347Z,3.70
2019-02-06T02:11:21.372Z,3.80
2019-02-06T02:14:01.348Z,3.80
2019-02-06T02:16:40.611Z,3.70
2019-02-06T02:19:19.655Z,3.70
2019-02-06T02:21:59.487Z,3.80
2019-02-06T02:28:03.150Z,3.80
2019-02-06T02:30:45.331Z,3.80
2019-02-06T02:33:24.831Z,3.80
2019-02-06T02:36:15.297Z,3.70
2019-02-06T02:38:47.850Z,3.80
2019-02-06T02:51:36.072Z,3.90
2019-02-06T02:57:40.087Z,4.00
2019-02-06T03:03:47.228Z,4.10
2019-02-06T03:06:28.505Z,4.20
2019-02-06T03:09:07.652Z,4.30
2019-02-06T03:11:46.909Z,4.30
2019-02-06T03:14:26.903Z,4.30
2019-02-06T03:17:06.888Z,4.40
2019-02-06T03:19:46.813Z,4.40
2019-02-06T03:22:26.829Z,4.40
2019-02-06T03:25:07.025Z,4.30
2019-02-06T03:28:06.057Z,4.40
2019-02-06T03:30:49.158Z,4.60
2019-02-06T03:33:28.525Z,4.60
2019-02-06T03:39:14.747Z,4.70
2019-02-06T03:41:54.859Z,4.70
2019-02-06T03:44:33.956Z,4.70
2019-02-06T03:47:14.925Z,4.90
2019-02-06T03:53:13.373Z,4.80
2019-02-06T03:55:53.459Z,4.90
2019-02-06T03:58:52.564Z,4.80
2019-02-06T04:01:31.832Z,4.90
2019-02-06T04:04:11.946Z,4.80
2019-02-06T04:09:34.064Z,4.90
2019-02-06T04:12:14.075Z,4.90
2019-02-06T04:14:57.228Z,4.90
2019-02-06T04:20:18.636Z,4.90
2019-02-06T04:22:58.729Z,4.80
2019-02-06T04:25:38.748Z,4.70
2019-02-06T04:28:18.729Z,4.70
2019-02-06T04:30:58.826Z,4.60
2019-02-06T04:33:38.848Z,4.60
2019-02-06T04:36:22.856Z,4.50
2019-02-06T04:39:02.099Z,4.50
2019-02-06T04:41:41.993Z,4.60
2019-02-06T04:44:22.051Z,4.70
2019-02-06T04:47:02.126Z,4.60
2019-02-06T04:50:02.053Z,4.80
2019-02-06T04:52:41.485Z,4.70
2019-02-06T04:55:20.841Z,4.70
2019-02-06T04:58:00.996Z,4.70
2019-02-06T05:00:40.166Z,4.80
2019-02-06T05:03:20.239Z,4.90
2019-02-06T05:06:00.472Z,4.90
2019-02-06T05:08:40.584Z,5.00
2019-02-06T05:11:19.716Z,4.80
2019-02-06T05:13:59.760Z,4.90
2019-02-06T05:16:39.821Z,4.90
2019-02-06T05:19:19.913Z,4.90
2019-02-06T05:22:00.012Z,5.00
2019-02-06T05:24:40.034Z,4.90
2019-02-06T05:27:23.590Z,4.90
2019-02-06T05:30:03.170Z,4.90
2019-02-06T05:32:43.197Z,4.90
2019-02-06T05:35:22.414Z,4.90
2019-02-06T05:38:02.433Z,4.90
2019-02-06T05:40:42.322Z,4.90
2019-02-06T05:43:21.510Z,5.00
2019-02-06T05:46:01.557Z,5.00
2019-02-06T05:48:41.856Z,5.00
2019-02-06T05:51:21.737Z,4.90
2019-02-06T05:54:00.946Z,4.90
2019-02-06T06:00:05.520Z,4.80
2019-02-06T06:02:45.635Z,4.90
2019-02-06T06:05:25.568Z,4.80
2019-02-06T06:08:05.557Z,4.90
2019-02-06T06:10:45.635Z,5.00
2019-02-06T06:20:37.223Z,4.80
2019-02-06T06:23:34.447Z,4.90
2019-02-06T06:26:13.939Z,4.80
2019-02-06T06:28:53.325Z,4.80
2019-02-06T06:31:33.407Z,4.90
2019-02-06T06:34:13.532Z,5.00
2019-02-06T06:36:52.696Z,5.00
2019-02-06T06:39:37.812Z,5.00
2019-02-06T06:42:17.952Z,5.00
2019-02-06T06:44:58.072Z,5.00
2019-02-06T06:47:38.168Z,4.90
2019-02-06T06:50:18.131Z,5.00
2019-02-06T06:52:58.216Z,5.00
2019-02-06T06:55:38.177Z,4.80
2019-02-06T06:58:18.409Z,4.90
2019-02-06T07:01:02.397Z,4.80
2019-02-06T07:03:41.861Z,4.80
2019-02-06T07:06:25.416Z,4.80
2019-02-06T07:09:05.124Z,4.80
2019-02-06T07:11:45.270Z,4.80
2019-02-06T07:14:24.424Z,4.80
2019-02-06T07:24:12.805Z,4.90
2019-02-06T07:26:52.902Z,5.00
2019-02-06T07:29:36.894Z,5.10
2019-02-06T07:32:16.508Z,5.20
2019-02-06T07:34:56.366Z,5.30
2019-02-06T07:37:36.283Z,5.30
2019-02-06T07:40:15.502Z,5.30
2019-02-06T07:42:55.532Z,5.60
2019-02-06T07:45:34.775Z,5.60
2019-02-06T07:48:14.784Z,5.60
2019-02-06T07:50:54.590Z,5.70
2019-02-06T07:53:33.882Z,5.60
2019-02-06T07:56:14.102Z,5.70
2019-02-06T07:58:54.107Z,5.80
2019-02-06T08:01:37.778Z,5.70
2019-02-06T08:04:17.313Z,6.00
2019-02-06T08:06:57.288Z,6.00
2019-02-06T08:09:37.336Z,6.00
2019-02-06T08:12:17.238Z,5.90
2019-02-06T08:14:57.325Z,6.00
2019-02-06T08:17:37.485Z,6.00
2019-02-06T08:20:17.530Z,6.00
2019-02-06T08:22:57.639Z,6.00
2019-02-06T08:25:37.730Z,6.10
2019-02-06T08:28:17.708Z,6.30
2019-02-06T08:30:56.831Z,6.30
2019-02-06T08:33:36.847Z,6.50
2019-02-06T08:36:16.077Z,6.50
2019-02-06T08:38:56.167Z,6.70
2019-02-06T08:41:36.212Z,6.70
2019-02-06T08:44:16.267Z,6.80
2019-02-06T08:46:56.339Z,6.70
2019-02-06T08:49:36.320Z,6.80
2019-02-06T08:52:16.463Z,6.80
2019-02-06T08:54:56.423Z,6.80
2019-02-06T08:57:36.368Z,7.00
2019-02-06T09:03:24.481Z,7.30
2019-02-06T09:06:04.508Z,7.30
2019-02-06T09:08:44.732Z,7.30
2019-02-06T09:18:15.531Z,7.70
2019-02-06T09:20:55.715Z,7.50
2019-02-06T09:23:35.646Z,7.60
2019-02-06T09:26:15.788Z,7.70
2019-02-06T09:28:54.987Z,7.70
2019-02-06T09:31:34.938Z,7.80
2019-02-06T09:34:14.217Z,8.00
2019-02-06T09:36:54.221Z,8.10
2019-02-06T09:39:34.307Z,8.30
2019-02-06T09:42:14.492Z,8.40
2019-02-06T09:44:54.513Z,8.30
2019-02-06T09:47:34.579Z,8.20
2019-02-06T09:50:14.552Z,8.30
2019-02-06T09:52:54.639Z,8.50
2019-02-06T09:55:34.732Z,8.70
2019-02-06T09:58:14.743Z,8.90
2019-02-06T10:03:36.940Z,9.20
2019-02-06T10:06:17.006Z,9.50
2019-02-06T10:08:56.276Z,9.60
2019-02-06T10:11:36.338Z,9.40
2019-02-06T10:14:15.580Z,9.50
2019-02-06T10:16:54.742Z,9.70
2019-02-06T10:19:34.787Z,10.40
2019-02-06T10:22:14.828Z,10.70
2019-02-06T10:24:54.830Z,11.10
2019-02-06T10:27:35.676Z,11.80
2019-02-06T10:30:15.674Z,12.50
2019-02-06T10:32:55.544Z,12.80
2019-02-06T10:35:35.576Z,13.00
2019-02-06T10:38:15.635Z,13.00
2019-02-06T10:40:55.716Z,12.90
2019-02-06T10:43:35.912Z,12.60
2019-02-06T10:46:18.197Z,12.40
2019-02-06T10:48:56.391Z,12.30
2019-02-06T10:51:36.588Z,12.30
2019-02-06T10:56:58.260Z,12.50
2019-02-06T10:59:38.386Z,12.00
2019-02-06T11:05:37.389Z,11.00
2019-02-06T11:08:17.331Z,11.10
2019-02-06T11:10:56.538Z,10.80
2019-02-06T11:13:35.824Z,10.60
2019-02-06T11:16:15.278Z,10.50
2019-02-06T11:18:54.457Z,10.30
2019-02-06T11:21:34.638Z,10.10
2019-02-06T11:26:56.751Z,10.00
2019-02-06T11:29:37.043Z,9.90
2019-02-06T11:32:16.264Z,9.90
2019-02-06T11:34:56.252Z,9.90
2019-02-06T11:37:36.158Z,10.00
2019-02-06T11:40:35.206Z,10.00
2019-02-06T11:43:14.915Z,9.90
2019-02-06T11:45:54.607Z,9.90
2019-02-06T11:48:35.671Z,10.00
2019-02-06T11:51:14.956Z,9.90
2019-02-06T11:53:58.884Z,9.90
2019-02-06T11:56:38.065Z,10.00
2019-02-06T12:02:42.854Z,10.10
2019-02-06T12:05:22.052Z,10.00
2019-02-06T12:08:01.863Z,9.90
2019-02-06T12:10:41.823Z,9.70
2019-02-06T12:13:20.875Z,9.60
2019-02-06T12:15:59.937Z,9.60
2019-02-06T12:18:39.966Z,9.50
2019-02-06T12:21:23.765Z,9.50
2019-02-06T12:24:03.520Z,9.70
2019-02-06T12:26:43.364Z,9.80
2019-02-06T12:29:23.439Z,9.80
2019-02-06T12:32:03.335Z,9.90
2019-02-06T12:34:43.208Z,9.90
2019-02-06T12:37:22.314Z,10.00
2019-02-06T12:40:01.498Z,10.10
2019-02-06T12:42:41.646Z,10.20
2019-02-06T12:45:20.918Z,10.00
2019-02-06T12:48:01.132Z,9.90
2019-02-06T12:50:41.217Z,10.00
2019-02-06T12:56:03.264Z,10.30
2019-02-06T12:58:42.432Z,10.40
2019-02-06T13:01:22.368Z,10.50
2019-02-06T13:04:01.690Z,10.70
2019-02-06T13:06:41.025Z,10.80
2019-02-06T13:09:21.120Z,10.90
2019-02-06T13:12:01.124Z,10.90
2019-02-06T13:14:41.140Z,10.80
2019-02-06T13:17:20.312Z,10.60
2019-02-06T13:20:00.371Z,10.50
2019-02-06T13:22:40.699Z,10.40
2019-02-06T13:28:01.966Z,10.10
2019-02-06T13:30:42.171Z,10.20
2019-02-06T13:33:22.336Z,10.10
2019-02-06T13:36:04.381Z,10.10
2019-02-06T13:38:44.494Z,10.10
2019-02-06T13:41:24.338Z,9.90
2019-02-06T13:44:04.363Z,10.10
2019-02-06T13:46:52.948Z,10.20
2019-02-06T13:49:25.522Z,10.20
2019-02-06T13:52:04.600Z,10.30
2019-02-06T13:54:43.829Z,10.30
2019-02-06T13:57:43.713Z,10.30
2019-02-06T14:00:23.058Z,10.10
2019-02-06T14:03:02.245Z,10.30
2019-02-06T14:05:41.671Z,10.40
2019-02-06T14:08:21.827Z,10.40
2019-02-06T14:11:01.693Z,10.30
2019-02-06T14:16:49.925Z,10.40
2019-02-06T14:19:29.886Z,10.30
2019-02-06T14:22:10.061Z,10.30
2019-02-06T14:24:50.117Z,10.40
2019-02-06T14:27:30.233Z,10.40
2019-02-06T14:30:12.131Z,10.30
2019-02-06T14:32:51.273Z,10.30
2019-02-06T14:35:32.212Z,10.40
2019-02-06T14:38:12.374Z,10.30
2019-02-06T14:40:51.490Z,10.30
2019-02-06T14:43:31.445Z,10.10
2019-02-06T14:46:11.560Z,10.20
2019-02-06T14:48:51.581Z,10.10
2019-02-06T14:51:31.596Z,10.10
2019-02-06T14:57:18.732Z,10.20
2019-02-06T14:59:58.786Z,10.20
2019-02-06T15:02:38.941Z,10.20
2019-02-06T15:05:17.985Z,10.20
2019-02-06T15:07:57.216Z,10.40
2019-02-06T15:10:37.164Z,10.20
2019-02-06T15:13:16.287Z,10.20
2019-02-06T15:19:35.688Z,10.30
2019-02-06T15:22:15.596Z,10.30
2019-02-06T15:28:18.114Z,10.30
2019-02-06T15:30:57.197Z,10.30
2019-02-06T15:33:36.313Z,10.10
2019-02-06T15:36:16.244Z,10.10
2019-02-06T15:38:56.351Z,10.00
2019-02-06T15:41:35.528Z,9.90
2019-02-06T15:44:15.619Z,10.10
2019-02-06T15:46:55.729Z,10.00
2019-02-06T15:49:35.787Z,10.00
2019-02-06T15:52:15.094Z,10.00
2019-02-06T15:54:55.163Z,9.90
2019-02-06T15:57:35.414Z,9.70
2019-02-06T16:10:23.605Z,9.80
2019-02-06T16:15:44.766Z,9.80
2019-02-06T16:18:23.915Z,9.80
2019-02-06T16:21:03.311Z,9.70
2019-02-06T16:26:25.628Z,9.50
2019-02-06T16:29:04.846Z,9.40
2019-02-06T16:31:46.812Z,9.60
2019-02-06T16:34:26.073Z,9.60
2019-02-06T16:37:05.295Z,9.60
2019-02-06T16:39:45.339Z,9.60
2019-02-06T16:42:24.646Z,9.60
2019-02-06T16:45:03.845Z,9.50
2019-02-06T16:47:45.918Z,9.40
2019-02-06T16:50:24.992Z,9.50
2019-02-06T16:53:04.845Z,9.50
2019-02-06T16:55:47.929Z,9.60
2019-02-06T16:58:27.405Z,9.60
2019-02-06T17:01:07.389Z,9.60
2019-02-06T17:03:49.629Z,9.50
2019-02-06T17:06:28.712Z,9.50
2019-02-06T17:09:08.725Z,9.60
2019-02-06T17:11:49.000Z,9.60
2019-02-06T17:14:28.989Z,9.60
2019-02-06T17:17:08.953Z,9.60
2019-02-06T17:19:48.149Z,9.70
2019-02-06T17:22:28.188Z,9.80
2019-02-06T17:25:08.190Z,9.80
2019-02-06T17:27:48.220Z,9.90
2019-02-06T17:30:28.187Z,9.90
2019-02-06T17:33:08.193Z,9.80
2019-02-06T17:35:51.272Z,9.80
2019-02-06T17:38:30.472Z,9.80
2019-02-06T17:41:11.824Z,9.70
2019-02-06T17:43:51.937Z,9.70
2019-02-06T17:46:32.076Z,9.60
2019-02-06T17:49:11.307Z,9.60
2019-02-06T17:51:51.322Z,9.60
2019-02-06T17:54:31.605Z,9.50
2019-02-06T17:57:11.407Z,9.30
2019-02-06T17:59:51.502Z,9.30
2019-02-06T18:02:31.435Z,9.40
2019-02-06T18:05:11.485Z,9.40
2019-02-06T18:07:51.683Z,9.50
2019-02-06T18:10:31.774Z,9.40
2019-02-06T18:13:11.754Z,9.40
2019-02-06T18:15:50.986Z,9.50
2019-02-06T18:18:30.990Z,9.50
2019-02-06T18:24:19.924Z,9.40
2019-02-06T18:27:00.045Z,9.40
2019-02-06T18:32:48.534Z,9.30
2019-02-06T18:35:28.679Z,9.20
2019-02-06T18:38:07.969Z,9.10
2019-02-06T18:40:48.271Z,9.00
2019-02-06T18:43:28.315Z,9.00
2019-02-06T18:46:07.629Z,8.90
2019-02-06T18:48:47.627Z,8.90
2019-02-06T18:51:26.901Z,9.00
2019-02-06T18:57:50.109Z,9.00
2019-02-06T19:00:32.281Z,9.00
2019-02-06T19:03:11.519Z,9.10
2019-02-06T19:08:33.357Z,9.20
2019-02-06T19:11:13.516Z,9.20
2019-02-06T19:16:35.994Z,9.30
2019-02-06T19:22:41.071Z,9.20
2019-02-06T19:25:23.855Z,9.10
2019-02-06T19:28:02.424Z,9.00
2019-02-06T19:30:42.393Z,9.00
2019-02-06T19:33:22.501Z,8.90
2019-02-06T19:36:02.555Z,8.90
2019-02-06T19:38:42.686Z,8.90
2019-02-06T19:41:22.914Z,8.80
2019-02-06T19:47:15.700Z,8.90
2019-02-06T19:49:55.034Z,8.90
2019-02-06T19:52:34.899Z,8.80
2019-02-06T19:55:34.849Z,8.70
2019-02-06T19:58:14.032Z,8.70
2019-02-06T20:00:54.023Z,8.70
2019-02-06T20:03:34.148Z,8.60
2019-02-06T20:09:18.373Z,8.90
2019-02-06T20:11:58.307Z,8.90
2019-02-06T20:14:38.391Z,8.90
2019-02-06T20:17:17.645Z,8.90
2019-02-06T20:19:57.905Z,9.00
2019-02-06T20:22:37.898Z,9.00
2019-02-06T20:25:17.947Z,8.90
2019-02-06T20:27:57.123Z,8.80
2019-02-06T20:30:37.221Z,8.90
2019-02-06T20:33:17.259Z,8.90
2019-02-06T20:35:57.440Z,8.90
2019-02-06T20:38:37.516Z,8.90
2019-02-06T20:41:16.755Z,8.90
2019-02-06T20:47:22.172Z,8.90
2019-02-06T20:50:02.269Z,9.10
2019-02-06T20:52:42.258Z,8.90
2019-02-06T20:55:21.439Z,8.90
2019-02-06T20:58:00.724Z,8.90
2019-02-06T21:00:40.822Z,9.00
2019-02-06T21:03:20.077Z,9.00
2019-02-06T21:06:00.142Z,9.00
2019-02-06T21:08:40.167Z,9.00
2019-02-06T21:11:20.457Z,9.00
2019-02-06T21:14:00.475Z,9.10
2019-02-06T21:16:39.749Z,9.20
2019-02-06T21:19:19.705Z,9.30
2019-02-06T21:21:59.678Z,9.30
2019-02-06T21:27:48.693Z,9.30
2019-02-06T21:30:48.549Z,9.10
2019-02-06T21:33:27.972Z,9.10
2019-02-06T21:42:12.313Z,9.20
2019-02-06T21:44:52.327Z,9.30
2019-02-06T21:47:32.406Z,9.30
2019-02-06T21:50:11.672Z,9.20
2019-02-06T21:52:50.984Z,9.20
2019-02-06T21:55:31.100Z,9.20
2019-02-06T21:58:11.274Z,9.20
2019-02-06T22:00:50.503Z,9.10
2019-02-06T22:03:33.842Z,9.00
2019-02-06T22:06:13.053Z,9.00
2019-02-06T22:08:52.272Z,9.00
2019-02-06T22:14:56.902Z,9.10
2019-02-06T22:17:56.008Z,9.10
2019-02-06T22:20:35.657Z,9.10
2019-02-06T22:23:14.981Z,9.20
2019-02-06T22:25:55.158Z,9.30
2019-02-06T22:28:35.389Z,9.30
2019-02-06T22:37:28.377Z,9.30
2019-02-06T22:42:50.581Z,9.30
2019-02-06T22:45:30.648Z,9.30
2019-02-06T22:48:10.738Z,9.20
2019-02-06T22:50:50.792Z,9.10
2019-02-06T22:53:30.952Z,9.00
2019-02-06T22:56:10.055Z,9.00
2019-02-06T22:58:50.207Z,8.90
2019-02-06T23:01:30.124Z,8.90
2019-02-06T23:04:09.324Z,9.00
2019-02-06T23:06:48.673Z,9.00
2019-02-06T23:09:28.686Z,8.90
2019-02-06T23:12:08.634Z,9.00
2019-02-06T23:14:48.020Z,9.20
2019-02-06T23:17:27.856Z,9.10
2019-02-06T23:20:06.967Z,9.10
2019-02-06T23:22:50.149Z,9.00
2019-02-06T23:28:13.573Z,8.90
2019-02-06T23:30:52.861Z,8.70
2019-02-06T23:33:36.339Z,8.60
2019-02-06T23:36:16.218Z,8.70
2019-02-06T23:38:55.408Z,8.70
2019-02-06T23:41:35.429Z,8.70
2019-02-06T23:44:14.568Z,8.70
2019-02-06T23:46:56.188Z,8.70
2019-02-06T23:49:34.855Z,8.70
2019-02-06T23:52:18.944Z,8.70
2019-02-06T23:54:58.308Z,8.80
2019-02-06T23:57:38.126Z,8.70
